Absecon City, New Jersey
Current Conditions -  °F | °C
As of 7:54 PM on Saturday 22 Nov 2014 (Local Time) from KACY Reporting Station
Overcast Overcast  
Wind Chill:   Ceiling: 9500
Heat Index:   Visibility: 10mi
Dew Point: -5°   Wind: 9mph
Humidity: 47%   Direction: 230°SW
Pressure: 30.31"   Gusts: NA
Location:  39.4315°N, 74.5003°W
Report Text: KACY 230054Z 23008KT 10SM OVC095 06/M05 A3031 RMK AO2 SLP263 T00561050
Loading
Personal Weather Stations






























Interactive Weather Map New forecast layout! Learn more

10-Day Weather Forecast

Advertisements
Track Severe Weather on mobile